createdAt,value
2022-12-11T00:01:30.138Z,18.01
2022-12-11T00:03:59.137Z,18.03
2022-12-11T00:06:27.818Z,18.02
2022-12-11T00:08:55.858Z,18.01
2022-12-11T00:11:24.170Z,18.00
2022-12-11T00:13:52.529Z,17.98
2022-12-11T00:16:25.322Z,17.98
2022-12-11T00:18:55.768Z,17.97
2022-12-11T00:21:23.992Z,17.96
2022-12-11T00:23:52.828Z,17.96
2022-12-11T00:26:21.969Z,17.95
2022-12-11T00:28:53.412Z,17.94
2022-12-11T00:31:22.860Z,17.93
2022-12-11T00:33:52.128Z,17.93
2022-12-11T00:36:28.392Z,17.91
2022-12-11T00:38:57.146Z,17.91
2022-12-11T00:41:25.751Z,17.89
2022-12-11T00:43:54.911Z,17.88
2022-12-11T00:46:23.284Z,17.87
2022-12-11T00:49:01.378Z,17.85
2022-12-11T00:51:29.674Z,17.90
2022-12-11T00:53:58.058Z,17.92
2022-12-11T00:56:27.100Z,17.93
2022-12-11T00:58:55.613Z,17.95
2022-12-11T01:01:25.443Z,17.98
2022-12-11T01:03:54.765Z,18.02
2022-12-11T01:06:26.636Z,18.05
2022-12-11T01:09:14.108Z,18.08
2022-12-11T01:11:43.470Z,18.11
2022-12-11T01:14:13.259Z,18.13
2022-12-11T01:16:41.874Z,18.17
2022-12-11T01:19:10.857Z,18.20
2022-12-11T01:21:39.256Z,18.23
2022-12-11T01:24:08.782Z,18.24
2022-12-11T01:26:37.354Z,18.24
2022-12-11T01:29:05.290Z,18.23
2022-12-11T01:31:34.488Z,18.23
2022-12-11T01:34:02.901Z,18.22
2022-12-11T01:36:31.072Z,18.20
2022-12-11T01:38:59.455Z,18.18
2022-12-11T01:41:28.033Z,18.16
2022-12-11T01:44:00.532Z,18.14
2022-12-11T01:46:31.233Z,18.12
2022-12-11T01:49:01.453Z,18.10
2022-12-11T01:51:32.729Z,18.07
2022-12-11T01:54:07.108Z,18.05
2022-12-11T01:56:38.188Z,18.03
2022-12-11T01:59:08.985Z,18.01
2022-12-11T02:01:36.394Z,17.97
2022-12-11T02:04:05.617Z,17.96
2022-12-11T02:06:36.421Z,17.93
2022-12-11T02:09:12.994Z,17.91
2022-12-11T02:12:07.238Z,17.89
2022-12-11T02:15:15.812Z,17.86
2022-12-11T02:17:56.033Z,17.83
2022-12-11T02:20:42.617Z,17.81
2022-12-11T02:23:15.320Z,17.79
2022-12-11T02:26:21.171Z,17.79
2022-12-11T02:28:59.985Z,17.76
2022-12-11T02:31:39.391Z,17.76
2022-12-11T02:34:18.995Z,17.74
2022-12-11T02:37:03.044Z,17.73
2022-12-11T02:39:34.956Z,17.71
2022-12-11T02:42:05.047Z,17.69
2022-12-11T02:44:36.339Z,17.68
2022-12-11T02:47:08.047Z,17.67
2022-12-11T02:49:36.926Z,17.67
2022-12-11T02:52:08.369Z,17.65
2022-12-11T02:54:40.504Z,17.64
2022-12-11T02:57:19.787Z,17.63
2022-12-11T02:59:49.097Z,17.63
2022-12-11T03:02:19.362Z,17.61
2022-12-11T03:04:49.167Z,17.61
2022-12-11T03:07:23.717Z,17.60
2022-12-11T03:09:53.103Z,17.59
2022-12-11T03:12:31.907Z,17.58
2022-12-11T03:15:24.235Z,17.58
2022-12-11T03:18:13.543Z,17.57
2022-12-11T03:20:52.606Z,17.56
2022-12-11T03:23:53.731Z,17.55
2022-12-11T03:26:24.700Z,17.54
2022-12-11T03:29:12.581Z,17.54
2022-12-11T03:31:46.700Z,17.53
2022-12-11T03:34:24.282Z,17.53
2022-12-11T03:36:54.742Z,17.51
2022-12-11T03:39:27.976Z,17.51
2022-12-11T03:41:58.137Z,17.50
2022-12-11T03:44:28.472Z,17.48
2022-12-11T03:47:00.597Z,17.49
2022-12-11T03:49:32.233Z,17.48
2022-12-11T03:52:02.267Z,17.48
2022-12-11T03:54:31.589Z,17.47
2022-12-11T03:57:04.126Z,17.46
2022-12-11T03:59:32.596Z,17.45
2022-12-11T04:02:01.512Z,17.45
2022-12-11T04:04:30.481Z,17.44
2022-12-11T04:06:59.546Z,17.44
2022-12-11T04:09:28.862Z,17.45
2022-12-11T04:11:57.810Z,17.46
2022-12-11T04:14:45.107Z,17.46
2022-12-11T04:17:33.324Z,17.46
2022-12-11T04:20:21.154Z,17.48
2022-12-11T04:23:08.173Z,17.49
2022-12-11T04:25:36.994Z,17.52
2022-12-11T04:28:05.733Z,17.55
2022-12-11T04:30:34.691Z,17.58
2022-12-11T04:33:03.110Z,17.61
2022-12-11T04:35:32.263Z,17.63
2022-12-11T04:38:01.425Z,17.67
2022-12-11T04:40:30.346Z,17.70
2022-12-11T04:42:59.229Z,17.72
2022-12-11T04:45:28.079Z,17.75
2022-12-11T04:47:56.924Z,17.77
2022-12-11T04:50:25.997Z,17.80
2022-12-11T04:52:58.294Z,17.82
2022-12-11T04:55:27.693Z,17.86
2022-12-11T04:57:56.109Z,17.88
2022-12-11T05:00:24.649Z,17.90
2022-12-11T05:02:53.992Z,17.93
2022-12-11T05:05:23.173Z,17.95
2022-12-11T05:07:51.652Z,17.97
2022-12-11T05:10:20.602Z,17.99
2022-12-11T05:12:49.334Z,18.02
2022-12-11T05:15:18.408Z,18.04
2022-12-11T05:17:47.055Z,18.05
2022-12-11T05:20:16.256Z,18.07
2022-12-11T05:22:45.288Z,18.09
2022-12-11T05:25:13.645Z,18.10
2022-12-11T05:27:42.750Z,18.12
2022-12-11T05:30:14.113Z,18.14
2022-12-11T05:32:44.028Z,18.16
2022-12-11T05:35:13.255Z,18.18
2022-12-11T05:37:41.941Z,18.19
2022-12-11T05:40:13.569Z,18.20
2022-12-11T05:42:42.486Z,18.22
2022-12-11T05:45:13.575Z,18.23
2022-12-11T05:47:41.993Z,18.25
2022-12-11T05:50:11.132Z,18.26
2022-12-11T05:52:39.649Z,18.27
2022-12-11T05:55:11.003Z,18.29
2022-12-11T05:57:40.021Z,18.30
2022-12-11T06:00:13.345Z,18.32
2022-12-11T06:02:41.863Z,18.32
2022-12-11T06:05:11.177Z,18.34
2022-12-11T06:07:40.184Z,18.35
2022-12-11T06:10:11.835Z,18.36
2022-12-11T06:12:41.097Z,18.38
2022-12-11T06:15:12.368Z,18.39
2022-12-11T06:17:40.760Z,18.40
2022-12-11T06:20:10.949Z,18.40
2022-12-11T06:22:40.409Z,18.41
2022-12-11T06:25:11.250Z,18.43
2022-12-11T06:27:39.816Z,18.44
2022-12-11T06:30:12.290Z,18.45
2022-12-11T06:32:41.761Z,18.46
2022-12-11T06:35:12.688Z,18.47
2022-12-11T06:37:41.792Z,18.48
2022-12-11T06:40:13.370Z,18.49
2022-12-11T06:42:42.142Z,18.50
2022-12-11T06:45:13.312Z,18.51
2022-12-11T06:47:41.488Z,18.52
2022-12-11T06:50:11.717Z,18.52
2022-12-11T06:52:40.574Z,18.54
2022-12-11T06:55:11.979Z,18.54
2022-12-11T06:57:41.129Z,18.55
2022-12-11T07:00:14.365Z,18.56
2022-12-11T07:02:43.132Z,18.57
2022-12-11T07:05:12.977Z,18.57
2022-12-11T07:07:41.263Z,18.58
2022-12-11T07:10:13.355Z,18.59
2022-12-11T07:12:41.873Z,18.64
2022-12-11T07:15:13.074Z,18.68
2022-12-11T07:17:41.517Z,18.78
2022-12-11T07:20:12.600Z,19.01
2022-12-11T07:27:02.937Z,18.38
2022-12-11T07:29:31.810Z,16.75
2022-12-11T07:32:00.564Z,14.84
2022-12-11T07:34:29.870Z,13.09
2022-12-11T07:36:59.165Z,11.82
2022-12-11T07:39:28.792Z,10.58
2022-12-11T07:41:57.653Z,9.73
2022-12-11T07:44:26.483Z,9.07
2022-12-11T07:46:54.946Z,8.62
2022-12-11T07:49:23.381Z,8.27
2022-12-11T07:51:53.068Z,8.00
2022-12-11T07:54:21.706Z,7.78
2022-12-11T07:56:53.673Z,7.60
2022-12-11T07:59:22.071Z,7.42
2022-12-11T08:01:51.123Z,7.30
2022-12-11T08:04:19.910Z,7.22
2022-12-11T08:06:49.121Z,7.15
2022-12-11T08:09:21.321Z,7.11
2022-12-11T08:11:51.329Z,7.06
2022-12-11T08:14:20.643Z,7.00
2022-12-11T08:16:49.276Z,6.94
2022-12-11T08:19:18.245Z,6.88
2022-12-11T08:21:47.145Z,6.84
2022-12-11T08:24:16.514Z,6.82
2022-12-11T08:26:46.112Z,6.83
2022-12-11T08:29:15.165Z,6.82
2022-12-11T08:31:43.684Z,6.79
2022-12-11T08:34:14.020Z,6.81
2022-12-11T08:36:42.959Z,6.82
2022-12-11T08:39:11.936Z,6.82
2022-12-11T08:41:40.559Z,6.84
2022-12-11T08:44:16.549Z,6.86
2022-12-11T08:46:45.079Z,6.89
2022-12-11T08:49:13.654Z,6.92
2022-12-11T08:51:42.797Z,6.95
2022-12-11T08:54:12.863Z,6.96
2022-12-11T08:57:04.649Z,7.02
2022-12-11T08:59:34.201Z,7.03
2022-12-11T09:02:03.261Z,7.07
2022-12-11T09:04:32.309Z,7.07
2022-12-11T09:07:01.165Z,7.08
2022-12-11T09:09:30.230Z,7.08
2022-12-11T09:11:59.498Z,7.09
2022-12-11T09:14:28.677Z,7.10
2022-12-11T09:16:56.975Z,7.10
2022-12-11T09:19:31.927Z,7.12
2022-12-11T09:22:00.706Z,7.14
2022-12-11T09:24:30.354Z,7.16
2022-12-11T09:26:59.795Z,7.14
2022-12-11T09:29:28.009Z,7.12
2022-12-11T09:31:56.814Z,7.10
2022-12-11T09:34:29.490Z,7.07
2022-12-11T09:36:58.634Z,7.06
2022-12-11T09:39:27.555Z,7.06
2022-12-11T09:42:14.039Z,7.04
2022-12-11T09:45:22.688Z,7.03
2022-12-11T09:47:54.923Z,7.03
2022-12-11T09:50:33.033Z,7.03
2022-12-11T09:53:35.849Z,7.04
2022-12-11T09:56:23.691Z,7.06
2022-12-11T09:59:13.862Z,7.09
2022-12-11T10:01:59.018Z,7.13
2022-12-11T10:04:26.909Z,7.14
2022-12-11T10:07:19.436Z,7.16
2022-12-11T10:09:58.522Z,7.15
2022-12-11T10:13:16.006Z,7.12
2022-12-11T10:16:00.929Z,7.08
2022-12-11T10:18:31.323Z,7.06
2022-12-11T10:21:04.155Z,7.06
2022-12-11T10:23:47.189Z,7.06
2022-12-11T10:26:20.818Z,7.04
2022-12-11T10:28:50.169Z,7.02
2022-12-11T10:31:25.730Z,6.98
2022-12-11T10:34:06.295Z,6.91
2022-12-11T10:36:38.452Z,6.87
2022-12-11T10:39:19.237Z,6.85
2022-12-11T10:41:52.879Z,6.86
2022-12-11T10:44:26.318Z,6.86
2022-12-11T10:47:05.005Z,6.82
2022-12-11T10:49:35.937Z,6.74
2022-12-11T10:52:14.157Z,6.70
2022-12-11T10:54:45.024Z,6.68
2022-12-11T10:57:16.232Z,6.66
2022-12-11T10:59:43.731Z,6.61
2022-12-11T11:02:28.827Z,6.59
2022-12-11T11:04:59.511Z,6.60
2022-12-11T11:07:29.724Z,6.62
2022-12-11T11:10:13.155Z,6.64
2022-12-11T11:12:43.970Z,6.65
2022-12-11T11:15:23.355Z,6.65
2022-12-11T11:17:55.748Z,6.66
2022-12-11T11:20:27.300Z,6.65
2022-12-11T11:22:58.619Z,6.67
2022-12-11T11:25:29.806Z,6.68
2022-12-11T11:27:58.668Z,6.69
2022-12-11T11:31:00.064Z,6.67
2022-12-11T11:33:29.777Z,6.67
2022-12-11T11:36:03.268Z,6.68
2022-12-11T11:38:50.842Z,6.71
2022-12-11T11:41:28.942Z,6.74
2022-12-11T11:44:41.017Z,6.73
2022-12-11T11:47:11.251Z,6.69
2022-12-11T11:49:47.219Z,6.67
2022-12-11T11:52:34.221Z,6.70
2022-12-11T11:55:39.198Z,6.71
2022-12-11T11:58:27.894Z,6.74
2022-12-11T12:00:56.550Z,6.76
2022-12-11T12:03:26.388Z,6.75
2022-12-11T12:06:01.000Z,6.74
2022-12-11T12:08:48.282Z,6.74
2022-12-11T12:11:38.544Z,6.73
2022-12-11T12:17:42.480Z,6.66
2022-12-11T12:20:33.508Z,6.66
2022-12-11T12:23:03.912Z,6.66
2022-12-11T12:25:50.883Z,6.67
2022-12-11T12:28:42.953Z,6.67
2022-12-11T12:31:21.525Z,6.69
2022-12-11T12:34:08.008Z,6.70
2022-12-11T12:37:23.187Z,6.69
2022-12-11T12:40:00.227Z,6.66
2022-12-11T12:42:36.870Z,6.60
2022-12-11T12:45:48.384Z,6.55
2022-12-11T12:48:17.297Z,6.48
2022-12-11T12:50:49.801Z,6.39
2022-12-11T12:53:29.092Z,6.34
2022-12-11T12:55:58.473Z,6.32
2022-12-11T12:58:28.271Z,6.28
2022-12-11T13:01:39.126Z,6.20
2022-12-11T13:04:26.193Z,6.11
2022-12-11T13:06:58.675Z,6.08
2022-12-11T13:09:29.456Z,6.06
2022-12-11T13:11:58.948Z,5.97
2022-12-11T13:14:32.605Z,5.89
2022-12-11T13:17:22.433Z,5.80
2022-12-11T13:19:53.214Z,5.70
2022-12-11T13:22:23.312Z,5.64
2022-12-11T13:24:54.538Z,5.62
2022-12-11T13:27:43.951Z,5.60
2022-12-11T13:30:14.834Z,5.57
2022-12-11T13:32:50.946Z,5.56
2022-12-11T13:35:20.108Z,5.57
2022-12-11T13:37:53.926Z,5.58
2022-12-11T13:40:27.212Z,5.60
2022-12-11T13:42:59.578Z,5.52
2022-12-11T13:45:41.101Z,5.36
2022-12-11T13:48:34.239Z,5.20
2022-12-11T13:51:03.729Z,5.08
2022-12-11T13:53:32.347Z,4.96
2022-12-11T13:56:08.546Z,4.85
2022-12-11T13:58:39.517Z,4.79
2022-12-11T14:01:12.124Z,4.75
2022-12-11T14:03:44.077Z,4.71
2022-12-11T14:06:18.233Z,4.67
2022-12-11T14:08:51.121Z,4.63
2022-12-11T14:11:34.914Z,4.60
2022-12-11T14:14:05.971Z,4.57
2022-12-11T14:16:34.462Z,4.52
2022-12-11T14:19:37.330Z,4.50
2022-12-11T14:22:07.239Z,4.44
2022-12-11T14:24:36.936Z,4.44
2022-12-11T14:27:05.099Z,4.46
2022-12-11T14:29:34.972Z,4.50
2022-12-11T14:34:07.457Z,5.53
2022-12-11T14:36:36.910Z,8.08
2022-12-11T14:39:12.453Z,10.14
2022-12-11T14:41:47.109Z,12.03
2022-12-11T14:44:17.542Z,13.65
2022-12-11T14:47:11.417Z,15.02
2022-12-11T14:49:59.700Z,16.31
2022-12-11T14:52:41.893Z,17.38
2022-12-11T14:55:18.463Z,18.22
2022-12-11T14:57:50.883Z,18.91
2022-12-11T15:00:59.207Z,19.47
2022-12-11T15:03:34.906Z,20.02
2022-12-11T15:06:22.260Z,20.59
2022-12-11T15:08:51.293Z,21.79
2022-12-11T15:11:20.243Z,23.24
2022-12-11T15:14:02.529Z,24.85
2022-12-11T15:16:35.526Z,26.88
2022-12-11T15:19:03.773Z,28.72
2022-12-11T15:21:39.431Z,30.26
2022-12-11T15:24:22.427Z,31.49
2022-12-11T15:26:50.274Z,32.32
2022-12-11T15:29:25.826Z,33.27
2022-12-11T15:32:04.411Z,34.25
2022-12-11T15:34:48.272Z,35.10
2022-12-11T15:37:27.754Z,35.81
2022-12-11T15:39:58.021Z,36.37
2022-12-11T15:42:36.608Z,36.76
2022-12-11T15:45:16.716Z,37.01
2022-12-11T15:47:45.484Z,37.15
2022-12-11T15:50:19.473Z,37.24
2022-12-11T15:52:48.208Z,37.28
2022-12-11T15:55:18.468Z,37.26
2022-12-11T15:57:49.878Z,37.19
2022-12-11T16:00:19.179Z,37.07
2022-12-11T16:02:48.764Z,36.90
2022-12-11T16:05:17.393Z,36.73
2022-12-11T16:07:46.202Z,36.55
2022-12-11T16:10:19.525Z,36.36
2022-12-11T16:12:47.635Z,36.17
2022-12-11T16:15:23.093Z,35.96
2022-12-11T16:18:02.094Z,35.77
2022-12-11T16:20:31.246Z,35.57
2022-12-11T16:23:01.019Z,35.39
2022-12-11T16:25:29.351Z,35.21
2022-12-11T16:27:59.838Z,35.06
2022-12-11T16:30:29.780Z,34.90
2022-12-11T16:32:59.143Z,34.73
2022-12-11T16:35:28.239Z,34.57
2022-12-11T16:37:57.652Z,34.40
2022-12-11T16:40:27.239Z,34.25
2022-12-11T16:42:55.447Z,34.11
2022-12-11T16:45:25.788Z,33.98
2022-12-11T16:47:54.549Z,33.80
2022-12-11T16:50:23.778Z,33.59
2022-12-11T16:52:52.716Z,33.47
2022-12-11T16:55:22.985Z,33.33
2022-12-11T16:57:52.046Z,33.20
2022-12-11T17:00:20.988Z,33.09
2022-12-11T17:02:50.996Z,33.05
2022-12-11T17:05:20.708Z,33.00
2022-12-11T17:07:49.587Z,32.91
2022-12-11T17:10:18.863Z,32.73
2022-12-11T17:12:47.377Z,32.46
2022-12-11T17:15:17.745Z,32.13
2022-12-11T17:17:46.658Z,31.79
2022-12-11T17:20:16.248Z,31.48
2022-12-11T17:22:46.280Z,31.19
2022-12-11T17:25:19.701Z,30.92
2022-12-11T17:27:47.956Z,30.65
2022-12-11T17:30:17.238Z,30.43
2022-12-11T17:32:49.132Z,30.22
2022-12-11T17:35:16.702Z,30.01
2022-12-11T17:37:44.812Z,29.80
2022-12-11T17:40:15.348Z,29.60
2022-12-11T17:42:45.511Z,29.42
2022-12-11T17:45:14.398Z,29.23
2022-12-11T17:47:42.972Z,29.04
2022-12-11T17:50:11.866Z,28.85
2022-12-11T17:52:44.209Z,28.65
2022-12-11T17:55:14.028Z,28.45
2022-12-11T17:57:42.727Z,28.25
2022-12-11T18:00:16.317Z,28.06
2022-12-11T18:02:44.877Z,27.87
2022-12-11T18:05:14.076Z,27.69
2022-12-11T18:07:43.350Z,27.52
2022-12-11T18:10:11.620Z,27.36
2022-12-11T18:12:41.496Z,27.18
2022-12-11T18:15:12.112Z,27.02
2022-12-11T18:17:40.514Z,26.85
2022-12-11T18:20:14.460Z,26.70
2022-12-11T18:22:43.285Z,26.54
2022-12-11T18:25:12.889Z,26.39
2022-12-11T18:27:41.354Z,26.25
2022-12-11T18:30:14.842Z,26.10
2022-12-11T18:32:44.476Z,25.97
2022-12-11T18:35:13.789Z,25.83
2022-12-11T18:37:42.456Z,25.68
2022-12-11T18:40:12.429Z,25.55
2022-12-11T18:42:41.369Z,25.51
2022-12-11T18:45:12.373Z,25.50
2022-12-11T18:47:42.233Z,25.55
2022-12-11T18:50:10.899Z,25.62
2022-12-11T18:52:40.258Z,25.72
2022-12-11T18:55:11.473Z,25.81
2022-12-11T18:57:40.135Z,25.98
2022-12-11T19:00:12.557Z,26.10
2022-12-11T19:02:42.021Z,26.25
2022-12-11T19:05:11.301Z,26.38
2022-12-11T19:07:39.882Z,26.48
2022-12-11T19:10:08.952Z,26.55
2022-12-11T19:12:37.662Z,26.55
2022-12-11T19:15:10.519Z,26.51
2022-12-11T19:17:39.326Z,26.45
2022-12-11T19:20:40.353Z,26.38
2022-12-11T19:25:31.888Z,25.90
2022-12-11T19:27:59.624Z,25.21
2022-12-11T19:30:29.172Z,24.61
2022-12-11T19:32:58.940Z,24.08
2022-12-11T19:35:27.745Z,23.60
2022-12-11T19:37:57.259Z,23.19
2022-12-11T19:40:26.862Z,22.83
2022-12-11T19:42:55.452Z,22.52
2022-12-11T19:45:24.411Z,22.26
2022-12-11T19:47:52.491Z,22.03
2022-12-11T19:50:21.123Z,21.83
2022-12-11T19:52:49.710Z,21.66
2022-12-11T19:55:21.891Z,21.51
2022-12-11T19:57:51.228Z,21.38
2022-12-11T20:00:21.900Z,21.26
2022-12-11T20:02:50.511Z,21.17
2022-12-11T20:05:19.682Z,21.09
2022-12-11T20:07:49.192Z,21.00
2022-12-11T20:10:17.679Z,20.94
2022-12-11T20:12:46.225Z,20.88
2022-12-11T20:15:14.682Z,20.80
2022-12-11T20:17:44.797Z,20.72
2022-12-11T20:20:13.569Z,20.66
2022-12-11T20:22:41.948Z,20.59
2022-12-11T20:25:13.068Z,20.53
2022-12-11T20:27:41.382Z,20.48
2022-12-11T20:30:13.300Z,20.44
2022-12-11T20:32:42.026Z,20.39
2022-12-11T20:35:12.253Z,20.35
2022-12-11T20:37:41.037Z,20.32
2022-12-11T20:40:11.717Z,20.28
2022-12-11T20:42:40.981Z,20.25
2022-12-11T20:45:12.972Z,20.22
2022-12-11T20:47:41.614Z,20.19
2022-12-11T20:50:11.811Z,20.16
2022-12-11T20:52:40.933Z,20.13
2022-12-11T20:55:12.119Z,20.11
2022-12-11T20:57:44.848Z,20.07
2022-12-11T21:00:16.034Z,20.05
2022-12-11T21:02:45.475Z,20.02
2022-12-11T21:05:14.764Z,19.99
2022-12-11T21:07:43.288Z,19.97
2022-12-11T21:10:14.584Z,19.95
2022-12-11T21:12:43.078Z,19.93
2022-12-11T21:15:14.775Z,19.91
2022-12-11T21:17:43.795Z,19.90
2022-12-11T21:20:13.609Z,19.87
2022-12-11T21:22:41.680Z,19.86
2022-12-11T21:25:14.003Z,19.84
2022-12-11T21:27:43.737Z,19.82
2022-12-11T21:30:15.424Z,19.80
2022-12-11T21:32:43.140Z,19.78
2022-12-11T21:35:12.727Z,19.77
2022-12-11T21:37:42.975Z,19.75
2022-12-11T21:40:14.566Z,19.73
2022-12-11T21:42:42.903Z,19.72
2022-12-11T21:48:01.761Z,19.69
2022-12-11T21:50:30.089Z,19.67
2022-12-11T21:52:58.765Z,19.66
2022-12-11T21:55:27.391Z,19.65
2022-12-11T21:57:56.827Z,19.63
2022-12-11T22:00:27.440Z,19.62
2022-12-11T22:02:56.651Z,19.60
2022-12-11T22:05:25.759Z,19.59
2022-12-11T22:07:54.461Z,19.57
2022-12-11T22:10:23.230Z,19.56
2022-12-11T22:12:51.560Z,19.55
2022-12-11T22:15:19.840Z,19.54
2022-12-11T22:17:48.844Z,19.52
2022-12-11T22:20:18.720Z,19.51
2022-12-11T22:22:46.899Z,19.50
2022-12-11T22:25:15.887Z,19.49
2022-12-11T22:27:44.582Z,19.47
2022-12-11T22:30:15.036Z,19.46
2022-12-11T22:32:43.716Z,19.44
2022-12-11T22:35:12.647Z,19.42
2022-12-11T22:37:41.476Z,19.41
2022-12-11T22:40:14.600Z,19.40
2022-12-11T22:42:44.198Z,19.39
2022-12-11T22:45:16.342Z,19.38
2022-12-11T22:47:46.188Z,19.37
2022-12-11T22:50:16.084Z,19.35
2022-12-11T22:52:45.632Z,19.34
2022-12-11T22:55:15.005Z,19.33
2022-12-11T22:57:43.840Z,19.32
2022-12-11T23:00:16.832Z,19.31
2022-12-11T23:02:46.413Z,19.30
2022-12-11T23:05:15.255Z,19.28
2022-12-11T23:07:44.121Z,19.26
2022-12-11T23:10:13.338Z,19.25
2022-12-11T23:12:42.032Z,19.24
2022-12-11T23:15:13.566Z,19.23
2022-12-11T23:17:42.068Z,19.22
2022-12-11T23:20:13.230Z,19.21
2022-12-11T23:22:42.289Z,19.19
2022-12-11T23:25:14.637Z,19.18
2022-12-11T23:27:44.685Z,19.17
2022-12-11T23:30:14.534Z,19.16
2022-12-11T23:32:42.955Z,19.15
2022-12-11T23:35:13.055Z,19.15
2022-12-11T23:37:42.287Z,19.13
2022-12-11T23:40:14.657Z,19.12
2022-12-11T23:42:44.343Z,19.11
2022-12-11T23:45:15.515Z,19.09
2022-12-11T23:47:44.631Z,19.09
2022-12-11T23:50:13.240Z,19.08
2022-12-11T23:52:41.730Z,19.07
2022-12-11T23:55:12.581Z,19.06
2022-12-11T23:57:41.639Z,19.05
